Time;durP1;ratioP1;P1;durP2;ratioP2;P2;SDS_P1;SDS_P2;PMS_P1;PMS_P2;Temp;Humidity;BMP_temperature;BMP_pressure;BME280_temperature;BME280_humidity;BME280_pressure;Samples;Min_cycle;Max_cycle;Signal;HPM_P1;HPM_P2
2023/12/11 00:00:04;;;;;;;;;;;;;;;14.34;49.78;99266.03;4926286;28;98842;-71
2023/12/11 00:02:30;;;;;;;;;;;;;;;14.35;49.67;99258.72;4922735;28;98372;-70
2023/12/11 00:04:56;;;;;;;;;;;;;;;14.34;49.77;99257.91;4926403;28;98348;-70
2023/12/11 00:07:22;;;;;;;;;;;;;;;14.34;49.97;99251.69;4922222;28;100177;-66
2023/12/11 00:09:48;;;;;;;;;;;;;;;14.33;49.74;99247.38;4907163;28;117042;-66
2023/12/11 00:12:14;;;;;;;;;;;;;;;14.32;49.89;99245.81;4924750;28;98089;-71
2023/12/11 00:14:40;;;;;;;;;;;;;;;14.32;49.80;99233.03;4926845;28;104309;-70
2023/12/11 00:17:06;;;;;;;;;;;;;;;14.31;49.57;99214.41;4905249;28;98044;-70
2023/12/11 00:19:32;;;;;;;;;;;;;;;14.30;49.94;99202.75;4906895;28;98232;-69
2023/12/11 00:21:58;;;;;;;;;;;;;;;14.30;49.61;99196.53;4918445;28;105917;-69
2023/12/11 00:24:24;;;;;;;;;;;;;;;14.29;49.58;99192.22;4919470;28;98023;-69
2023/12/11 00:26:50;;;;;;;;;;;;;;;14.29;49.61;99179.47;4904174;28;128901;-69
2023/12/11 00:29:16;;;;;;;;;;;;;;;14.28;49.89;99172.47;4903905;28;99048;-70
2023/12/11 00:31:42;;;;;;;;;;;;;;;14.27;49.67;99173.59;4910877;28;116788;-65
2023/12/11 00:34:08;;;;;;;;;;;;;;;14.26;49.80;99150.31;4920800;28;98416;-65
2023/12/11 00:36:34;;;;;;;;;;;;;;;14.27;49.61;99143.78;4908795;28;99314;-69
2023/12/11 00:39:00;;;;;;;;;;;;;;;14.26;49.80;99142.16;4908478;28;103238;-65
2023/12/11 00:41:26;;;;;;;;;;;;;;;14.23;49.78;99138.22;4919208;28;98063;-65
2023/12/11 00:43:52;;;;;;;;;;;;;;;14.24;50.06;99142.50;4917794;28;127608;-65
2023/12/11 00:46:24;;;;;;;;;;;;;;;14.22;49.45;99131.19;4921197;28;128285;-69
2023/12/11 00:48:50;;;;;;;;;;;;;;;14.23;49.64;99126.59;4927358;28;97978;-65
2023/12/11 00:51:17;;;;;;;;;;;;;;;14.20;49.96;99122.59;4927752;28;98605;-65
2023/12/11 00:53:43;;;;;;;;;;;;;;;14.22;49.77;99128.47;4909785;28;98271;-65
2023/12/11 00:56:09;;;;;;;;;;;;;;;14.21;49.65;99109.84;4919107;28;98471;-65
2023/12/11 00:58:35;;;;;;;;;;;;;;;14.21;49.79;99109.84;4906465;28;99554;-65
2023/12/11 01:01:02;;;;;;;;;;;;;;;14.22;49.71;99104.06;4908546;28;98096;-69
2023/12/11 01:03:27;;;;;;;;;;;;;;;14.20;49.71;99092.78;4906719;28;121740;-65
2023/12/11 01:05:53;;;;;;;;;;;;;;;14.21;49.88;99085.44;4921414;28;99271;-69
2023/12/11 01:08:19;;;;;;;;;;;;;;;14.19;49.74;99074.16;4919419;28;103577;-69
2023/12/11 01:10:45;;;;;;;;;;;;;;;14.20;49.81;99075.72;4924241;28;98059;-65
2023/12/11 01:13:11;;;;;;;;;;;;;;;14.20;49.90;99076.53;4921430;28;100071;-69
2023/12/11 01:15:38;;;;;;;;;;;;;;;14.18;49.76;99084.16;4910005;28;98058;-69
2023/12/11 01:18:04;;;;;;;;;;;;;;;14.19;49.60;99071.44;4910008;28;97992;-69
2023/12/11 01:20:29;;;;;;;;;;;;;;;14.18;49.63;99078.75;4924212;28;100353;-69
2023/12/11 01:22:56;;;;;;;;;;;;;;;14.19;49.97;99079.56;4926419;28;119179;-69
2023/12/11 01:25:22;;;;;;;;;;;;;;;14.19;49.53;99064.09;4928199;28;98104;-69
2023/12/11 01:27:48;;;;;;;;;;;;;;;14.19;49.90;99055.97;4886515;28;98266;-67
2023/12/11 01:30:14;;;;;;;;;;;;;;;14.19;49.65;99055.97;4924554;28;114536;-66
2023/12/11 01:32:40;;;;;;;;;;;;;;;14.20;49.98;99067.59;4924380;28;100645;-66
2023/12/11 01:35:06;;;;;;;;;;;;;;;14.19;49.74;99053.25;4902633;28;98410;-70
2023/12/11 01:37:32;;;;;;;;;;;;;;;14.20;49.93;99056.75;4923496;28;98342;-70
2023/12/11 01:39:58;;;;;;;;;;;;;;;14.20;49.73;99054.06;4910924;28;118147;-70
2023/12/11 01:42:24;;;;;;;;;;;;;;;14.21;49.87;99044.78;4924622;28;98266;-66
2023/12/11 01:44:50;;;;;;;;;;;;;;;14.19;49.83;99033.50;4907021;28;129516;-69
2023/12/11 01:47:16;;;;;;;;;;;;;;;14.20;49.94;99041.28;4923569;28;99347;-66
2023/12/11 01:49:42;;;;;;;;;;;;;;;14.19;49.82;99036.22;4921616;28;99573;-70
2023/12/11 01:52:08;;;;;;;;;;;;;;;14.20;49.69;99044.00;4907457;28;104769;-66
2023/12/11 01:54:35;;;;;;;;;;;;;;;14.19;50.00;99041.63;4922277;28;98623;-69
2023/12/11 01:57:01;;;;;;;;;;;;;;;14.20;49.53;99038.59;4921109;28;110741;-65
2023/12/11 01:59:27;;;;;;;;;;;;;;;14.20;49.96;99035.09;4914819;28;98527;-70
2023/12/11 02:01:53;;;;;;;;;;;;;;;14.20;49.97;99029.66;4927534;28;98428;-66
2023/12/11 02:04:19;;;;;;;;;;;;;;;14.19;49.92;99037.00;4912270;28;109310;-70
2023/12/11 02:06:45;;;;;;;;;;;;;;;14.20;49.83;99041.28;4944537;28;127705;-65
2023/12/11 02:09:11;;;;;;;;;;;;;;;14.21;49.82;99029.31;4889569;28;99098;-65
2023/12/11 02:11:37;;;;;;;;;;;;;;;14.20;49.82;99027.75;4909881;28;100538;-69
2023/12/11 02:14:03;;;;;;;;;;;;;;;14.21;49.95;99026.63;4907585;28;100085;-70
2023/12/11 02:16:29;;;;;;;;;;;;;;;14.21;49.65;99023.13;4912339;28;98224;-69
2023/12/11 02:18:55;;;;;;;;;;;;;;;14.21;49.93;99031.25;4939331;28;117162;-66
2023/12/11 02:21:21;;;;;;;;;;;;;;;14.21;49.95;99021.19;4905984;28;103139;-69
2023/12/11 02:23:58;;;;;;;;;;;;;;;14.22;49.65;99022.78;4912414;28;99726;-70
2023/12/11 02:26:24;;;;;;;;;;;;;;;14.23;49.67;99018.19;4939158;28;121851;-69
2023/12/11 02:28:50;;;;;;;;;;;;;;;14.23;49.64;99018.97;4892561;28;115575;-70
2023/12/11 02:31:16;;;;;;;;;;;;;;;14.23;49.88;99018.97;4906607;28;98195;-65
2023/12/11 02:33:42;;;;;;;;;;;;;;;14.23;49.91;99016.25;4912412;28;98241;-70
2023/12/11 02:36:08;;;;;;;;;;;;;;;14.23;49.89;99018.19;4910932;28;98505;-70
2023/12/11 02:38:34;;;;;;;;;;;;;;;14.23;49.59;99013.56;4925577;28;98360;-65
2023/12/11 02:41:00;;;;;;;;;;;;;;;14.24;49.92;99019.75;4923702;28;98111;-65
2023/12/11 02:43:26;;;;;;;;;;;;;;;14.23;49.81;99010.03;4920043;28;99120;-65
2023/12/11 02:45:52;;;;;;;;;;;;;;;14.23;49.88;99021.69;4905898;28;116640;-70
2023/12/11 02:48:18;;;;;;;;;;;;;;;14.24;49.72;99017.06;4919440;28;98344;-65
2023/12/11 02:50:44;;;;;;;;;;;;;;;14.23;49.70;99024.38;4923318;28;103382;-70
2023/12/11 02:53:10;;;;;;;;;;;;;;;14.23;49.93;99010.03;4888604;28;101600;-65
2023/12/11 02:55:36;;;;;;;;;;;;;;;14.23;49.86;99018.19;4920864;28;116879;-70
2023/12/11 02:58:03;;;;;;;;;;;;;;;14.22;49.81;99024.69;4907037;28;116782;-70
2023/12/11 03:00:29;;;;;;;;;;;;;;;14.22;49.83;99033.63;4910124;28;112330;-70
2023/12/11 03:02:55;;;;;;;;;;;;;;;14.22;49.60;99041.75;4912070;28;123381;-65
2023/12/11 03:05:21;;;;;;;;;;;;;;;14.22;49.90;99035.53;4912058;28;109688;-70
2023/12/11 03:07:47;;;;;;;;;;;;;;;14.21;49.98;99032.03;4923621;28;101091;-70
2023/12/11 03:10:13;;;;;;;;;;;;;;;14.21;49.95;99036.66;4923545;28;118503;-70
2023/12/11 03:12:39;;;;;;;;;;;;;;;14.21;49.74;99042.09;4890214;28;100149;-65
2023/12/11 03:15:06;;;;;;;;;;;;;;;14.21;49.76;99039.38;4906404;28;98529;-65
2023/12/11 03:17:32;;;;;;;;;;;;;;;14.20;49.92;99045.91;4908486;28;97941;-70
2023/12/11 03:20:01;;;;;;;;;;;;;;;14.20;49.66;99049.44;4922630;28;121432;-66
2023/12/11 03:22:27;;;;;;;;;;;;;;;14.20;49.93;99045.91;4920653;28;99969;-70
2023/12/11 03:24:55;;;;;;;;;;;;;;;14.20;49.74;99041.28;4911194;28;106910;-66
2023/12/11 03:27:21;;;;;;;;;;;;;;;14.19;49.63;99039.72;4922239;28;98117;-69
2023/12/11 03:29:48;;;;;;;;;;;;;;;14.19;49.93;99034.28;4920525;28;98175;-69
2023/12/11 03:32:14;;;;;;;;;;;;;;;14.21;50.01;99039.38;4909696;28;97919;-65
2023/12/11 03:34:40;;;;;;;;;;;;;;;14.21;49.79;99040.16;4910094;28;98855;-65
2023/12/11 03:37:06;;;;;;;;;;;;;;;14.20;49.95;99038.59;4905992;28;112503;-65
2023/12/11 03:39:32;;;;;;;;;;;;;;;14.22;49.60;99035.53;4903450;28;98074;-70
2023/12/11 03:41:58;;;;;;;;;;;;;;;14.22;49.71;99035.53;4920688;28;128711;-70
2023/12/11 03:44:24;;;;;;;;;;;;;;;14.21;49.60;99036.66;4902220;28;127381;-70
2023/12/11 03:46:50;;;;;;;;;;;;;;;14.23;49.67;99031.72;4909058;28;98093;-70
2023/12/11 03:49:17;;;;;;;;;;;;;;;14.23;49.72;99040.66;4924010;28;122868;-69
2023/12/11 03:51:46;;;;;;;;;;;;;;;14.23;49.78;99037.94;4894093;28;99311;-65
2023/12/11 03:54:12;;;;;;;;;;;;;;;14.24;49.54;99050.38;4938318;28;126719;-69
2023/12/11 03:56:41;;;;;;;;;;;;;;;14.25;49.84;99041.09;4903670;28;105023;-70
2023/12/11 03:59:07;;;;;;;;;;;;;;;14.25;49.80;99045.72;4902882;28;114726;-70
2023/12/11 04:01:33;;;;;;;;;;;;;;;14.26;49.68;99047.31;4921086;28;98913;-65
2023/12/11 04:04:00;;;;;;;;;;;;;;;14.27;49.82;99043.50;4927234;28;103797;-70
2023/12/11 04:06:26;;;;;;;;;;;;;;;14.27;49.61;99045.44;4912042;28;99641;-65
2023/12/11 04:08:52;;;;;;;;;;;;;;;14.27;49.61;99032.66;4888306;28;113355;-70
2023/12/11 04:11:18;;;;;;;;;;;;;;;14.26;49.85;99036.47;4917070;28;119224;-65
2023/12/11 04:13:44;;;;;;;;;;;;;;;14.26;49.72;99041.91;4908086;28;103496;-66
2023/12/11 04:16:10;;;;;;;;;;;;;;;14.26;49.68;99031.06;4941280;28;102777;-69
2023/12/11 04:18:39;;;;;;;;;;;;;;;14.27;49.76;99042.72;4927749;28;97947;-65
2023/12/11 04:21:05;;;;;;;;;;;;;;;14.27;49.60;99048.13;4942424;28;98681;-65
2023/12/11 04:23:31;;;;;;;;;;;;;;;14.26;49.90;99044.59;4905807;28;105853;-65
2023/12/11 04:25:59;;;;;;;;;;;;;;;14.26;49.90;99052.72;4944346;28;98549;-65
2023/12/11 04:28:25;;;;;;;;;;;;;;;14.26;49.77;99058.16;4933452;28;98125;-65
2023/12/11 04:30:51;;;;;;;;;;;;;;;14.26;49.95;99058.16;4941438;28;98338;-65
2023/12/11 04:33:17;;;;;;;;;;;;;;;14.26;49.75;99050.03;4939707;28;98256;-69
2023/12/11 04:35:44;;;;;;;;;;;;;;;14.27;49.94;99056.25;4927458;28;98476;-70
2023/12/11 04:38:10;;;;;;;;;;;;;;;14.28;49.66;99047.00;4925690;28;101809;-65
2023/12/11 04:40:36;;;;;;;;;;;;;;;14.28;49.70;99050.50;4952891;28;98016;-70
2023/12/11 04:43:02;;;;;;;;;;;;;;;14.28;49.97;99053.22;4958311;28;108087;-70
2023/12/11 04:45:28;;;;;;;;;;;;;;;14.29;49.72;99057.50;4927418;28;98525;-66
2023/12/11 04:47:54;;;;;;;;;;;;;;;14.29;49.98;99062.94;4933572;28;100100;-66
2023/12/11 04:50:20;;;;;;;;;;;;;;;14.31;49.94;99051.78;4941082;28;100091;-65
2023/12/11 04:52:46;;;;;;;;;;;;;;;14.31;49.73;99058.00;4943274;28;98656;-65
2023/12/11 04:55:12;;;;;;;;;;;;;;;14.32;49.64;99056.88;4939047;28;115676;-66
2023/12/11 04:57:38;;;;;;;;;;;;;;;14.33;49.75;99063.88;4927503;28;99040;-65
2023/12/11 05:00:05;;;;;;;;;;;;;;;14.33;49.90;99061.16;4933769;28;98624;-69
2023/12/11 05:02:31;;;;;;;;;;;;;;;14.34;49.97;99056.53;4940574;28;98583;-65
2023/12/11 05:04:57;;;;;;;;;;;;;;;14.35;49.63;99064.34;4931806;28;98566;-70
2023/12/11 05:07:23;;;;;;;;;;;;;;;14.36;50.07;99076.78;4928256;28;99566;-70
2023/12/11 05:09:49;;;;;;;;;;;;;;;14.36;49.76;99068.66;4927823;28;98638;-65
2023/12/11 05:12:15;;;;;;;;;;;;;;;14.37;49.96;99072.16;4944925;28;126120;-66
2023/12/11 05:14:41;;;;;;;;;;;;;;;14.39;49.57;99073.44;4917588;28;98841;-65
2023/12/11 05:17:07;;;;;;;;;;;;;;;14.40;49.60;99075.00;4918548;28;127423;-69
2023/12/11 05:19:33;;;;;;;;;;;;;;;14.42;49.83;99080.09;4907915;28;100314;-65
2023/12/11 05:21:59;;;;;;;;;;;;;;;14.41;49.69;99076.59;4939288;28;98809;-65
2023/12/11 05:24:25;;;;;;;;;;;;;;;14.45;50.02;99082.16;4921894;28;117312;-70
2023/12/11 05:26:53;;;;;;;;;;;;;;;14.45;49.79;99082.16;4942639;28;99401;-69
2023/12/11 05:29:19;;;;;;;;;;;;;;;14.46;49.72;99081.84;4879152;28;98252;-66
2023/12/11 05:31:45;;;;;;;;;;;;;;;14.47;49.39;99086.13;4924545;28;98523;-66
2023/12/11 05:34:11;;;;;;;;;;;;;;;14.49;49.60;99085.84;4939234;28;99627;-70
2023/12/11 05:36:37;;;;;;;;;;;;;;;14.50;49.60;99087.41;4922368;28;99586;-69
2023/12/11 05:39:03;;;;;;;;;;;;;;;14.51;49.76;99082.81;4934389;28;126564;-66
2023/12/11 05:41:29;;;;;;;;;;;;;;;14.51;50.02;99085.53;4925431;28;98107;-70
2023/12/11 05:43:58;;;;;;;;;;;;;;;14.50;49.64;99090.13;4958672;28;114263;-70
2023/12/11 05:46:24;;;;;;;;;;;;;;;14.47;49.66;99083.44;4925232;28;98346;-66
2023/12/11 05:48:50;;;;;;;;;;;;;;;14.48;49.83;99086.94;4939268;28;121855;-66
2023/12/11 05:51:16;;;;;;;;;;;;;;;14.47;49.72;99082.63;4937249;28;120862;-66
2023/12/11 05:53:41;;;;;;;;;;;;;;;14.46;49.76;99086.44;4924106;28;99198;-66
2023/12/11 05:56:08;;;;;;;;;;;;;;;14.44;49.79;99091.41;4950380;28;127243;-70
2023/12/11 05:58:34;;;;;;;;;;;;;;;14.43;49.88;99089.84;4912910;28;100591;-66
2023/12/11 06:01:00;;;;;;;;;;;;;;;14.41;49.88;99092.06;4908651;28;98938;-70
2023/12/11 06:03:25;;;;;;;;;;;;;;;14.39;49.59;99086.97;4908496;28;107331;-70
2023/12/11 06:05:57;;;;;;;;;;;;;;;14.38;50.05;99082.69;4940553;28;113550;-66
2023/12/11 06:08:26;;;;;;;;;;;;;;;14.35;50.03;99088.75;4922976;28;98424;-69
2023/12/11 06:10:52;;;;;;;;;;;;;;;14.34;50.02;99089.06;4921572;28;98558;-69
2023/12/11 06:13:18;;;;;;;;;;;;;;;14.31;49.68;99087.03;4947374;28;98016;-70
2023/12/11 06:15:44;;;;;;;;;;;;;;;14.29;49.91;99090.03;4936689;28;114074;-66
2023/12/11 06:18:10;;;;;;;;;;;;;;;14.28;50.00;99093.09;4906068;28;111169;-66
2023/12/11 06:20:36;;;;;;;;;;;;;;;14.25;49.70;99084.47;4947876;28;118779;-66
2023/12/11 06:23:02;;;;;;;;;;;;;;;14.23;49.95;99088.63;4942926;28;117540;-66
2023/12/11 06:25:28;;;;;;;;;;;;;;;14.21;50.04;99097.06;4927299;28;128007;-70
2023/12/11 06:27:54;;;;;;;;;;;;;;;14.20;49.82;99089.28;4926444;28;98442;-66
2023/12/11 06:30:20;;;;;;;;;;;;;;;14.17;49.92;99090.72;4941820;28;98374;-66
2023/12/11 06:32:46;;;;;;;;;;;;;;;14.16;49.93;99096.47;4930201;28;99380;-66
2023/12/11 06:35:12;;;;;;;;;;;;;;;14.15;49.86;99094.88;4945980;28;99025;-66
2023/12/11 06:37:38;;;;;;;;;;;;;;;14.13;49.86;99089.78;4958482;28;100531;-66
2023/12/11 06:40:04;;;;;;;;;;;;;;;14.12;49.59;99084.69;4928345;28;126542;-66
2023/12/11 06:42:37;;;;;;;;;;;;;;;14.11;49.81;99085.78;4948752;28;97964;-69
2023/12/11 06:45:05;;;;;;;;;;;;;;;14.09;49.69;99088.81;4933140;28;99099;-70
2023/12/11 06:47:31;;;;;;;;;;;;;;;14.09;49.77;99088.03;4926054;28;98680;-69
2023/12/11 06:49:57;;;;;;;;;;;;;;;14.08;49.81;99087.25;4928505;28;123132;-66
2023/12/11 06:52:23;;;;;;;;;;;;;;;14.06;50.01;99099.50;4926805;28;112648;-70
2023/12/11 06:54:49;;;;;;;;;;;;;;;14.05;49.58;99085.19;4929774;28;113150;-70
2023/12/11 06:57:15;;;;;;;;;;;;;;;14.05;49.98;99081.69;4944072;28;128548;-70
2023/12/11 06:59:41;;;;;;;;;;;;;;;14.04;49.72;99094.44;4945790;28;98506;-70
2023/12/11 07:02:07;;;;;;;;;;;;;;;14.03;49.63;99086.59;4956010;28;116869;-66
2023/12/11 07:04:33;;;;;;;;;;;;;;;14.03;49.81;99092.03;4928122;28;98428;-66
2023/12/11 07:06:59;;;;;;;;;;;;;;;14.03;50.03;99087.44;4925568;28;98100;-66
2023/12/11 07:09:26;;;;;;;;;;;;;;;14.04;49.70;99091.72;4922211;28;128884;-70
2023/12/11 07:11:52;;;;;;;;;;;;;;;14.05;50.03;99092.50;4940690;28;98331;-66
2023/12/11 07:14:18;;;;;;;;;;;;;;;14.05;49.86;99093.31;4939599;28;99542;-70
2023/12/11 07:16:44;;;;;;;;;;;;;;;14.06;49.87;99091.38;4888661;28;98189;-69
2023/12/11 07:19:10;;;;;;;;;;;;;;;14.07;49.65;99103.81;4923981;28;98834;-70
2023/12/11 07:21:36;;;;;;;;;;;;;;;14.08;49.67;99110.84;4936930;28;103451;-70
2023/12/11 07:24:02;;;;;;;;;;;;;;;14.09;49.83;99115.13;4908381;28;97850;-66
2023/12/11 07:26:28;;;;;;;;;;;;;;;14.10;49.62;99103.16;4910781;28;124892;-69
2023/12/11 07:28:55;;;;;;;;;;;;;;;14.12;49.54;99109.88;4927624;28;125924;-69
2023/12/11 07:31:21;;;;;;;;;;;;;;;14.16;49.76;99104.59;4912751;28;99033;-65
2023/12/11 07:33:47;;;;;;;;;;;;;;;14.19;49.54;99109.38;4924444;28;128764;-66
2023/12/11 07:36:13;;;;;;;;;;;;;;;14.25;49.62;99108.84;4912947;28;99618;-66
2023/12/11 07:38:39;;;;;;;;;;;;;;;14.34;49.47;99102.59;4906608;28;98133;-69
2023/12/11 07:41:05;;;;;;;;;;;;;;;14.37;49.31;99108.19;4910630;28;115575;-69
2023/12/11 07:43:31;;;;;;;;;;;;;;;14.49;49.65;99104.81;4931277;28;99732;-65
2023/12/11 07:45:57;;;;;;;;;;;;;;;14.52;49.19;99098.75;4920087;28;99212;-70
2023/12/11 07:48:23;;;;;;;;;;;;;;;14.51;49.59;99099.88;4923415;28;98330;-69
2023/12/11 07:50:49;;;;;;;;;;;;;;;14.52;49.28;99098.75;4919221;28;99687;-66
2023/12/11 07:53:15;;;;;;;;;;;;;;;14.53;49.34;99086.78;4883766;28;116656;-69
2023/12/11 07:55:41;;;;;;;;;;;;;;;14.55;49.57;99095.38;4908964;28;129864;-70
2023/12/11 07:58:07;;;;;;;;;;;;;;;14.63;49.57;99094.53;4921841;28;98346;-69
2023/12/11 08:00:33;;;;;;;;;;;;;;;14.75;49.43;99091.13;4908108;28;98403;-66
2023/12/11 08:02:59;;;;;;;;;;;;;;;14.96;49.18;99077.59;4922998;28;127634;-70
2023/12/11 08:05:25;;;;;;;;;;;;;;;14.91;49.29;99094.88;4911192;28;98021;-70
2023/12/11 08:07:51;;;;;;;;;;;;;;;15.08;49.24;99088.53;4926653;28;99390;-69
2023/12/11 08:10:17;;;;;;;;;;;;;;;15.29;48.98;99085.00;4906465;28;98039;-70
2023/12/11 08:12:43;;;;;;;;;;;;;;;15.27;48.79;99090.00;4902703;28;122505;-66
2023/12/11 08:15:09;;;;;;;;;;;;;;;15.49;48.97;99081.50;4920895;28;97891;-70
2023/12/11 08:17:35;;;;;;;;;;;;;;;16.28;48.06;99081.53;4944149;28;99356;-70
2023/12/11 08:20:01;;;;;;;;;;;;;;;16.98;47.50;99084.13;4946655;28;117670;-70
2023/12/11 08:22:27;;;;;;;;;;;;;;;17.54;47.13;99079.56;4951966;28;98338;-66
2023/12/11 08:24:54;;;;;;;;;;;;;;;18.02;47.11;99080.47;4947396;28;128254;-66
2023/12/11 08:27:21;;;;;;;;;;;;;;;17.67;47.98;99072.09;4940784;28;98154;-70
2023/12/11 08:29:46;;;;;;;;;;;;;;;17.43;48.40;99078.47;4940635;28;98250;-70
2023/12/11 08:32:12;;;;;;;;;;;;;;;17.26;48.47;99073.31;4947604;28;105604;-66
2023/12/11 08:34:39;;;;;;;;;;;;;;;17.10;48.59;99078.69;4943055;28;98015;-69
2023/12/11 08:37:05;;;;;;;;;;;;;;;16.93;48.82;99072.34;4943901;28;98336;-70
2023/12/11 08:39:31;;;;;;;;;;;;;;;16.85;48.86;99075.19;4939286;28;98919;-66
2023/12/11 08:41:57;;;;;;;;;;;;;;;16.88;48.59;99074.50;4945864;28;98476;-70
2023/12/11 08:44:23;;;;;;;;;;;;;;;16.88;48.83;99077.22;4941263;28;131583;-66
2023/12/11 08:46:49;;;;;;;;;;;;;;;17.38;48.10;99076.78;4950598;28;97960;-66
2023/12/11 08:49:15;;;;;;;;;;;;;;;18.05;47.77;99068.09;4951429;28;98288;-70
2023/12/11 08:51:42;;;;;;;;;;;;;;;18.78;47.16;99064.78;4920342;28;98147;-66
2023/12/11 08:54:08;;;;;;;;;;;;;;;19.42;46.86;99059.94;4928459;28;98414;-70
2023/12/11 08:56:34;;;;;;;;;;;;;;;19.78;46.82;99050.50;4918423;28;102248;-66
2023/12/11 08:59:00;;;;;;;;;;;;;;;19.98;46.98;99051.25;4943389;28;98168;-66
2023/12/11 09:01:26;;;;;;;;;;;;;;;20.18;46.91;99054.72;4928627;28;99961;-66
2023/12/11 09:03:52;;;;;;;;;;;;;;;19.92;47.49;99043.69;4939429;28;127624;-66
2023/12/11 09:06:18;;;;;;;;;;;;;;;19.66;47.81;99050.66;4907931;28;100325;-70
2023/12/11 09:08:44;;;;;;;;;;;;;;;19.42;48.18;99040.03;4940159;28;98041;-70
2023/12/11 09:11:10;;;;;;;;;;;;;;;19.23;48.23;99046.25;4943640;28;98549;-66
2023/12/11 09:13:36;;;;;;;;;;;;;;;19.04;48.26;99045.09;4944184;28;130659;-70
2023/12/11 09:16:03;;;;;;;;;;;;;;;18.92;48.55;99053.41;4945350;28;109461;-70
2023/12/11 09:18:29;;;;;;;;;;;;;;;18.78;48.53;99045.69;4946612;28;98340;-67
2023/12/11 09:20:55;;;;;;;;;;;;;;;18.59;48.77;99040.19;4946477;28;129043;-70
2023/12/11 09:23:21;;;;;;;;;;;;;;;18.40;48.92;99046.34;4946979;28;98339;-66
2023/12/11 09:25:48;;;;;;;;;;;;;;;18.20;49.16;99053.66;4928773;28;110274;-66
2023/12/11 09:28:14;;;;;;;;;;;;;;;18.03;49.27;99046.59;4937960;28;98072;-66
2023/12/11 09:30:40;;;;;;;;;;;;;;;17.84;49.23;99047.31;4929403;28;99575;-66
2023/12/11 09:33:06;;;;;;;;;;;;;;;17.69;49.43;99050.78;4930972;28;127934;-66
2023/12/11 09:35:32;;;;;;;;;;;;;;;17.53;49.47;99045.28;4917978;28;128907;-66
2023/12/11 09:37:58;;;;;;;;;;;;;;;17.38;49.34;99051.47;4931720;28;98541;-70
2023/12/11 09:40:24;;;;;;;;;;;;;;;17.23;49.66;99038.59;4924756;28;114063;-70
2023/12/11 09:42:51;;;;;;;;;;;;;;;17.12;49.51;99049.16;4931156;28;99361;-70
2023/12/11 09:45:18;;;;;;;;;;;;;;;17.02;49.51;99049.66;4930565;28;98323;-70
2023/12/11 09:47:49;;;;;;;;;;;;;;;16.94;49.56;99040.50;4959446;28;100208;-70
2023/12/11 09:50:15;;;;;;;;;;;;;;;16.87;49.72;99032.13;4944536;28;98288;-70
2023/12/11 09:52:42;;;;;;;;;;;;;;;16.79;49.74;99035.75;4947578;28;99467;-70
2023/12/11 09:55:08;;;;;;;;;;;;;;;16.74;49.47;99025.09;4935256;28;98361;-70
2023/12/11 09:57:35;;;;;;;;;;;;;;;16.70;49.56;99033.13;4941254;28;98840;-66
2023/12/11 10:00:02;;;;;;;;;;;;;;;16.66;49.60;99027.59;4925996;28;99831;-66
2023/12/11 10:02:28;;;;;;;;;;;;;;;16.59;49.51;99032.81;4929218;28;98412;-66
2023/12/11 10:05:10;;;;;;;;;;;;;;;16.53;49.49;99028.72;4927316;28;127807;-70
2023/12/11 10:07:40;;;;;;;;;;;;;;;16.40;49.64;99022.50;4926654;28;98194;-70
2023/12/11 10:10:26;;;;;;;;;;;;;;;16.28;49.72;99022.50;4941441;28;98513;-66
2023/12/11 10:12:55;;;;;;;;;;;;;;;16.15;49.90;99039.91;4958422;28;98037;-65
2023/12/11 10:15:26;;;;;;;;;;;;;;;16.06;49.87;99036.53;4926880;28;98142;-70
2023/12/11 10:18:05;;;;;;;;;;;;;;;16.00;49.97;99033.25;4930219;28;98190;-70
2023/12/11 10:20:32;;;;;;;;;;;;;;;15.95;49.80;99022.56;4945225;28;98717;-70
2023/12/11 10:22:58;;;;;;;;;;;;;;;15.89;49.84;99010.34;4921985;28;98136;-66
2023/12/11 10:25:28;;;;;;;;;;;;;;;15.82;49.80;99013.63;4950443;28;98087;-70
2023/12/11 10:28:08;;;;;;;;;;;;;;;15.78;49.99;99003.75;4926441;28;98238;-70
2023/12/11 10:30:50;;;;;;;;;;;;;;;15.75;49.89;99007.16;4923622;28;99803;-66
2023/12/11 10:33:20;;;;;;;;;;;;;;;15.74;49.75;99021.88;4954051;28;122420;-66
2023/12/11 10:35:46;;;;;;;;;;;;;;;15.67;49.77;99017.75;4928970;28;98164;-65
2023/12/11 10:38:23;;;;;;;;;;;;;;;15.60;49.77;99016.69;4938429;28;98645;-66
2023/12/11 10:40:49;;;;;;;;;;;;;;;15.54;50.01;99018.84;4925829;28;99446;-70
2023/12/11 10:43:16;;;;;;;;;;;;;;;15.53;49.87;99019.97;4924389;28;98323;-70
2023/12/11 10:45:42;;;;;;;;;;;;;;;15.52;49.97;99017.56;4943339;28;98870;-66
2023/12/11 10:48:08;;;;;;;;;;;;;;;15.49;49.92;99013.63;4910784;28;117105;-66
2023/12/11 10:50:35;;;;;;;;;;;;;;;15.46;49.72;99012.38;4952247;28;98058;-66
2023/12/11 10:53:02;;;;;;;;;;;;;;;15.39;49.92;99009.38;4940871;28;99594;-66
2023/12/11 10:55:29;;;;;;;;;;;;;;;15.35;49.96;99003.03;4923385;28;98292;-66
2023/12/11 10:57:58;;;;;;;;;;;;;;;15.32;49.99;99002.91;4923059;28;98223;-70
2023/12/11 11:00:24;;;;;;;;;;;;;;;15.32;49.95;98997.47;4940094;28;98441;-70
2023/12/11 11:02:52;;;;;;;;;;;;;;;15.30;49.79;98988.91;4954018;28;101666;-70
2023/12/11 11:05:19;;;;;;;;;;;;;;;15.31;49.80;98991.25;4921512;28;98521;-70
2023/12/11 11:08:14;;;;;;;;;;;;;;;15.37;49.61;98986.44;4914581;28;98417;-70
2023/12/11 11:10:46;;;;;;;;;;;;;;;15.39;49.76;98976.03;4929870;28;99706;-70
2023/12/11 11:13:19;;;;;;;;;;;;;;;15.35;49.56;98973.19;4937900;28;102478;-67
2023/12/11 11:15:52;;;;;;;;;;;;;;;15.34;49.78;98977.03;4930748;28;97950;-66
2023/12/11 11:18:18;;;;;;;;;;;;;;;15.31;49.68;98974.97;4903109;28;98365;-66
2023/12/11 11:20:44;;;;;;;;;;;;;;;15.29;49.71;98969.09;4925772;28;116653;-70
2023/12/11 11:23:16;;;;;;;;;;;;;;;15.31;49.74;98972.25;4922877;28;98301;-66
2023/12/11 11:25:45;;;;;;;;;;;;;;;15.35;49.67;98967.75;4947262;28;98078;-70
2023/12/11 11:28:56;;;;;;;;;;;;;;;15.46;49.62;98968.13;4922073;28;98668;-70
2023/12/11 11:31:43;;;;;;;;;;;;;;;15.56;49.50;98969.59;4925371;28;98219;-70
2023/12/11 11:34:09;;;;;;;;;;;;;;;15.67;49.27;98965.38;4945122;28;98305;-66
2023/12/11 11:36:48;;;;;;;;;;;;;;;15.81;49.23;98965.06;4923528;28;126802;-70
2023/12/11 11:39:14;;;;;;;;;;;;;;;16.00;48.94;98964.53;4902318;28;98217;-70
2023/12/11 11:41:41;;;;;;;;;;;;;;;16.09;49.03;98960.53;4908823;28;98093;-66
2023/12/11 11:44:08;;;;;;;;;;;;;;;16.13;49.01;98971.53;4903457;28;98071;-66
2023/12/11 11:46:53;;;;;;;;;;;;;;;16.21;48.88;98962.47;4926149;28;99783;-70
2023/12/11 11:49:25;;;;;;;;;;;;;;;16.28;48.88;98962.69;4944922;28;98198;-66
2023/12/11 11:51:52;;;;;;;;;;;;;;;16.24;49.13;98961.78;4944941;28;98479;-70
2023/12/11 11:54:20;;;;;;;;;;;;;;;16.17;49.14;98956.13;4905190;28;98022;-66
2023/12/11 11:56:46;;;;;;;;;;;;;;;16.26;48.94;98956.00;4925394;28;109716;-70
2023/12/11 11:59:12;;;;;;;;;;;;;;;16.29;49.08;98958.03;4910380;28;98185;-70
2023/12/11 12:01:51;;;;;;;;;;;;;;;16.22;49.13;98955.09;4917923;28;98776;-70
2023/12/11 12:04:31;;;;;;;;;;;;;;;16.21;49.13;98943.44;4925243;28;98175;-68
2023/12/11 12:07:00;;;;;;;;;;;;;;;16.10;49.28;98943.09;4917876;28;98030;-69
2023/12/11 12:09:26;;;;;;;;;;;;;;;16.05;49.31;98945.25;4925951;28;99314;-70
2023/12/11 12:11:52;;;;;;;;;;;;;;;16.06;49.36;98949.56;4926614;28;99740;-70
2023/12/11 12:14:19;;;;;;;;;;;;;;;16.06;49.21;98944.91;4908236;28;98855;-65
2023/12/11 12:16:45;;;;;;;;;;;;;;;16.10;49.28;98948.53;4929333;28;98081;-69
2023/12/11 12:19:11;;;;;;;;;;;;;;;16.14;49.17;98948.66;4915248;28;99702;-65
2023/12/11 12:21:55;;;;;;;;;;;;;;;16.07;49.33;98949.22;4905116;28;98185;-65
2023/12/11 12:24:22;;;;;;;;;;;;;;;16.04;49.37;98944.47;4906413;28;98604;-69
2023/12/11 12:26:55;;;;;;;;;;;;;;;16.05;49.44;98943.34;4906854;28;98086;-65
2023/12/11 12:29:21;;;;;;;;;;;;;;;16.17;49.08;98934.38;4904116;28;99097;-69
2023/12/11 12:31:47;;;;;;;;;;;;;;;16.16;49.19;98932.81;4943690;28;98385;-69
2023/12/11 12:34:13;;;;;;;;;;;;;;;16.11;49.27;98933.00;4939677;28;98404;-66
2023/12/11 12:36:40;;;;;;;;;;;;;;;16.12;49.16;98935.41;4892296;28;97973;-66
2023/12/11 12:39:06;;;;;;;;;;;;;;;16.13;49.31;98941.63;4926943;28;97855;-65
2023/12/11 12:41:32;;;;;;;;;;;;;;;16.15;49.24;98931.19;4923805;28;101580;-70